sensor_id;sensor_type;location;lat;lon;timestamp;temperature;humidity
15160;DHT22;7680;48.800;9.680;2023-06-22T00:02:04;19.80;99.90
15160;DHT22;7680;48.800;9.680;2023-06-22T00:04:37;19.80;99.90
15160;DHT22;7680;48.800;9.680;2023-06-22T00:07:11;19.70;99.90
15160;DHT22;7680;48.800;9.680;2023-06-22T00:09:45;19.70;99.90
15160;DHT22;7680;48.800;9.680;2023-06-22T00:12:18;19.60;99.90
15160;DHT22;7680;48.800;9.680;2023-06-22T00:14:51;19.60;99.90
15160;DHT22;7680;48.800;9.680;2023-06-22T00:17:24;19.60;99.90
15160;DHT22;7680;48.800;9.680;2023-06-22T00:19:57;19.50;99.90
15160;DHT22;7680;48.800;9.680;2023-06-22T00:22:31;19.50;99.90
15160;DHT22;7680;48.800;9.680;2023-06-22T00:25:11;19.50;99.90
15160;DHT22;7680;48.800;9.680;2023-06-22T00:27:44;19.50;99.90
15160;DHT22;7680;48.800;9.680;2023-06-22T00:30:18;19.50;99.90
15160;DHT22;7680;48.800;9.680;2023-06-22T00:32:51;19.50;99.90
15160;DHT22;7680;48.800;9.680;2023-06-22T00:35:26;19.50;99.90
15160;DHT22;7680;48.800;9.680;2023-06-22T00:38:01;19.40;99.90
15160;DHT22;7680;48.800;9.680;2023-06-22T00:40:37;19.30;99.90
15160;DHT22;7680;48.800;9.680;2023-06-22T00:43:10;19.40;99.90
15160;DHT22;7680;48.800;9.680;2023-06-22T00:45:43;19.30;99.90
15160;DHT22;7680;48.800;9.680;2023-06-22T00:48:17;19.30;99.90
15160;DHT22;7680;48.800;9.680;2023-06-22T00:50:51;19.30;99.90
15160;DHT22;7680;48.800;9.680;2023-06-22T00:53:25;19.30;99.90
15160;DHT22;7680;48.800;9.680;2023-06-22T00:55:59;19.20;99.90
15160;DHT22;7680;48.800;9.680;2023-06-22T00:58:35;19.20;99.90
15160;DHT22;7680;48.800;9.680;2023-06-22T01:01:08;19.20;99.90
15160;DHT22;7680;48.800;9.680;2023-06-22T01:03:42;19.20;99.90
15160;DHT22;7680;48.800;9.680;2023-06-22T01:06:19;19.20;99.90
15160;DHT22;7680;48.800;9.680;2023-06-22T01:09:05;19.20;99.90
15160;DHT22;7680;48.800;9.680;2023-06-22T01:11:45;19.10;99.90
15160;DHT22;7680;48.800;9.680;2023-06-22T01:14:23;19.00;99.90
15160;DHT22;7680;48.800;9.680;2023-06-22T01:17:00;19.00;99.90
15160;DHT22;7680;48.800;9.680;2023-06-22T01:19:39;19.10;99.90
15160;DHT22;7680;48.800;9.680;2023-06-22T01:22:20;19.10;99.90
15160;DHT22;7680;48.800;9.680;2023-06-22T01:25:00;19.10;99.90
15160;DHT22;7680;48.800;9.680;2023-06-22T01:27:50;19.10;99.90
15160;DHT22;7680;48.800;9.680;2023-06-22T01:30:30;19.10;99.90
15160;DHT22;7680;48.800;9.680;2023-06-22T01:33:07;19.10;99.90
15160;DHT22;7680;48.800;9.680;2023-06-22T01:35:44;19.00;99.90
15160;DHT22;7680;48.800;9.680;2023-06-22T01:38:17;19.00;99.90
15160;DHT22;7680;48.800;9.680;2023-06-22T01:40:51;18.90;99.90
15160;DHT22;7680;48.800;9.680;2023-06-22T01:43:25;18.90;99.90
15160;DHT22;7680;48.800;9.680;2023-06-22T01:46:01;18.90;99.90
15160;DHT22;7680;48.800;9.680;2023-06-22T01:48:35;18.90;99.90
15160;DHT22;7680;48.800;9.680;2023-06-22T01:51:08;18.80;99.90
15160;DHT22;7680;48.800;9.680;2023-06-22T01:53:41;18.70;99.90
15160;DHT22;7680;48.800;9.680;2023-06-22T01:56:17;18.70;99.90
15160;DHT22;7680;48.800;9.680;2023-06-22T01:58:58;18.70;99.90
15160;DHT22;7680;48.800;9.680;2023-06-22T02:01:41;18.70;99.90
15160;DHT22;7680;48.800;9.680;2023-06-22T02:04:21;18.70;99.90
15160;DHT22;7680;48.800;9.680;2023-06-22T02:06:58;18.70;99.90
15160;DHT22;7680;48.800;9.680;2023-06-22T02:09:34;18.60;99.90
15160;DHT22;7680;48.800;9.680;2023-06-22T02:12:09;18.60;99.90
15160;DHT22;7680;48.800;9.680;2023-06-22T02:14:44;18.60;99.90
15160;DHT22;7680;48.800;9.680;2023-06-22T02:17:20;18.60;99.90
15160;DHT22;7680;48.800;9.680;2023-06-22T02:19:53;18.50;99.90
15160;DHT22;7680;48.800;9.680;2023-06-22T02:22:27;18.60;99.90
15160;DHT22;7680;48.800;9.680;2023-06-22T02:25:00;18.60;99.90
15160;DHT22;7680;48.800;9.680;2023-06-22T02:27:33;18.60;99.90
15160;DHT22;7680;48.800;9.680;2023-06-22T02:30:07;18.60;99.90
15160;DHT22;7680;48.800;9.680;2023-06-22T02:32:42;18.50;99.90
15160;DHT22;7680;48.800;9.680;2023-06-22T02:35:16;18.50;99.90
15160;DHT22;7680;48.800;9.680;2023-06-22T02:37:49;18.50;99.90
15160;DHT22;7680;48.800;9.680;2023-06-22T02:40:23;18.50;99.90
15160;DHT22;7680;48.800;9.680;2023-06-22T02:42:59;18.50;99.90
15160;DHT22;7680;48.800;9.680;2023-06-22T02:45:34;18.40;99.90
15160;DHT22;7680;48.800;9.680;2023-06-22T02:48:08;18.40;99.90
15160;DHT22;7680;48.800;9.680;2023-06-22T02:50:42;18.40;99.90
15160;DHT22;7680;48.800;9.680;2023-06-22T02:53:16;18.30;99.90
15160;DHT22;7680;48.800;9.680;2023-06-22T02:55:49;18.20;99.90
15160;DHT22;7680;48.800;9.680;2023-06-22T02:58:22;18.20;99.90
15160;DHT22;7680;48.800;9.680;2023-06-22T03:00:56;18.20;99.90
15160;DHT22;7680;48.800;9.680;2023-06-22T03:03:30;18.20;99.90
15160;DHT22;7680;48.800;9.680;2023-06-22T03:06:03;18.20;99.90
15160;DHT22;7680;48.800;9.680;2023-06-22T03:08:36;18.20;99.90
15160;DHT22;7680;48.800;9.680;2023-06-22T03:11:10;18.20;99.90
15160;DHT22;7680;48.800;9.680;2023-06-22T03:13:43;18.20;99.90
15160;DHT22;7680;48.800;9.680;2023-06-22T03:16:17;18.20;99.90
15160;DHT22;7680;48.800;9.680;2023-06-22T03:18:51;18.10;99.90
15160;DHT22;7680;48.800;9.680;2023-06-22T03:21:27;18.10;99.90
15160;DHT22;7680;48.800;9.680;2023-06-22T03:24:01;18.10;99.90
15160;DHT22;7680;48.800;9.680;2023-06-22T03:26:35;18.00;99.90
15160;DHT22;7680;48.800;9.680;2023-06-22T03:29:08;17.90;99.90
15160;DHT22;7680;48.800;9.680;2023-06-22T03:31:41;17.90;99.90
15160;DHT22;7680;48.800;9.680;2023-06-22T03:34:15;17.90;99.90
15160;DHT22;7680;48.800;9.680;2023-06-22T03:36:48;18.00;99.90
15160;DHT22;7680;48.800;9.680;2023-06-22T03:39:22;18.10;99.90
15160;DHT22;7680;48.800;9.680;2023-06-22T03:41:55;18.10;99.90
15160;DHT22;7680;48.800;9.680;2023-06-22T03:44:28;18.20;99.90
15160;DHT22;7680;48.800;9.680;2023-06-22T03:47:01;18.20;99.90
15160;DHT22;7680;48.800;9.680;2023-06-22T03:49:36;18.20;99.90
15160;DHT22;7680;48.800;9.680;2023-06-22T03:52:09;18.30;99.90
15160;DHT22;7680;48.800;9.680;2023-06-22T03:54:42;18.30;99.90
15160;DHT22;7680;48.800;9.680;2023-06-22T03:57:15;18.30;99.90
15160;DHT22;7680;48.800;9.680;2023-06-22T03:59:49;18.40;99.90
15160;DHT22;7680;48.800;9.680;2023-06-22T04:02:23;18.30;99.90
15160;DHT22;7680;48.800;9.680;2023-06-22T04:04:57;18.30;99.90
15160;DHT22;7680;48.800;9.680;2023-06-22T04:07:34;18.30;99.90
15160;DHT22;7680;48.800;9.680;2023-06-22T04:10:09;18.30;99.90
15160;DHT22;7680;48.800;9.680;2023-06-22T04:12:44;18.40;99.90
15160;DHT22;7680;48.800;9.680;2023-06-22T04:15:17;18.50;99.90
15160;DHT22;7680;48.800;9.680;2023-06-22T04:17:50;18.50;99.90
15160;DHT22;7680;48.800;9.680;2023-06-22T04:20:24;18.60;99.90
15160;DHT22;7680;48.800;9.680;2023-06-22T04:23:00;18.60;99.90
15160;DHT22;7680;48.800;9.680;2023-06-22T04:25:33;18.70;99.90
15160;DHT22;7680;48.800;9.680;2023-06-22T04:28:07;18.70;99.90
15160;DHT22;7680;48.800;9.680;2023-06-22T04:30:44;18.80;99.90
15160;DHT22;7680;48.800;9.680;2023-06-22T04:33:19;18.90;99.90
15160;DHT22;7680;48.800;9.680;2023-06-22T04:35:53;18.90;99.90
15160;DHT22;7680;48.800;9.680;2023-06-22T04:38:26;18.90;99.90
15160;DHT22;7680;48.800;9.680;2023-06-22T04:40:59;19.00;99.90
15160;DHT22;7680;48.800;9.680;2023-06-22T04:43:35;19.10;99.90
15160;DHT22;7680;48.800;9.680;2023-06-22T04:46:08;19.30;99.90
15160;DHT22;7680;48.800;9.680;2023-06-22T04:48:41;19.70;99.90
15160;DHT22;7680;48.800;9.680;2023-06-22T04:51:15;20.20;99.90
15160;DHT22;7680;48.800;9.680;2023-06-22T04:53:53;20.70;99.90
15160;DHT22;7680;48.800;9.680;2023-06-22T04:56:32;20.90;99.90
15160;DHT22;7680;48.800;9.680;2023-06-22T04:59:06;21.40;99.90
15160;DHT22;7680;48.800;9.680;2023-06-22T05:01:39;21.70;99.90
15160;DHT22;7680;48.800;9.680;2023-06-22T05:04:13;22.00;99.90
15160;DHT22;7680;48.800;9.680;2023-06-22T05:06:48;22.10;99.90
15160;DHT22;7680;48.800;9.680;2023-06-22T05:09:21;22.50;99.90
15160;DHT22;7680;48.800;9.680;2023-06-22T05:11:55;22.80;99.90
15160;DHT22;7680;48.800;9.680;2023-06-22T05:14:29;22.70;99.90
15160;DHT22;7680;48.800;9.680;2023-06-22T05:17:02;23.00;99.90
15160;DHT22;7680;48.800;9.680;2023-06-22T05:19:47;23.10;99.90
15160;DHT22;7680;48.800;9.680;2023-06-22T05:22:22;23.60;99.90
15160;DHT22;7680;48.800;9.680;2023-06-22T05:24:55;23.90;99.90
15160;DHT22;7680;48.800;9.680;2023-06-22T05:27:28;24.00;99.90
15160;DHT22;7680;48.800;9.680;2023-06-22T05:30:01;24.10;99.90
15160;DHT22;7680;48.800;9.680;2023-06-22T05:32:34;24.30;99.90
15160;DHT22;7680;48.800;9.680;2023-06-22T05:35:08;24.50;99.90
15160;DHT22;7680;48.800;9.680;2023-06-22T05:37:43;24.80;99.90
15160;DHT22;7680;48.800;9.680;2023-06-22T05:40:16;25.10;99.90
15160;DHT22;7680;48.800;9.680;2023-06-22T05:42:49;25.30;99.90
15160;DHT22;7680;48.800;9.680;2023-06-22T05:45:23;25.20;99.90
15160;DHT22;7680;48.800;9.680;2023-06-22T05:47:56;25.10;99.90
15160;DHT22;7680;48.800;9.680;2023-06-22T05:50:29;25.20;99.90
15160;DHT22;7680;48.800;9.680;2023-06-22T05:53:04;25.10;99.90
15160;DHT22;7680;48.800;9.680;2023-06-22T05:55:38;25.40;99.90
15160;DHT22;7680;48.800;9.680;2023-06-22T05:58:12;25.80;99.90
15160;DHT22;7680;48.800;9.680;2023-06-22T06:00:45;26.00;99.90
15160;DHT22;7680;48.800;9.680;2023-06-22T06:03:21;26.10;99.90
15160;DHT22;7680;48.800;9.680;2023-06-22T06:05:54;26.20;99.90
15160;DHT22;7680;48.800;9.680;2023-06-22T06:08:29;26.50;99.90
15160;DHT22;7680;48.800;9.680;2023-06-22T06:11:02;26.70;99.90
15160;DHT22;7680;48.800;9.680;2023-06-22T06:13:36;27.10;99.90
15160;DHT22;7680;48.800;9.680;2023-06-22T06:16:09;27.00;99.90
15160;DHT22;7680;48.800;9.680;2023-06-22T06:18:42;27.20;99.90
15160;DHT22;7680;48.800;9.680;2023-06-22T06:21:15;27.50;99.90
15160;DHT22;7680;48.800;9.680;2023-06-22T06:23:49;27.20;99.90
15160;DHT22;7680;48.800;9.680;2023-06-22T06:26:22;27.40;99.90
15160;DHT22;7680;48.800;9.680;2023-06-22T06:29:01;27.70;99.90
15160;DHT22;7680;48.800;9.680;2023-06-22T06:31:35;27.70;99.90
15160;DHT22;7680;48.800;9.680;2023-06-22T06:34:08;27.90;99.90
15160;DHT22;7680;48.800;9.680;2023-06-22T06:36:41;28.30;99.90
15160;DHT22;7680;48.800;9.680;2023-06-22T06:39:15;28.80;99.90
15160;DHT22;7680;48.800;9.680;2023-06-22T06:41:48;28.90;99.80
15160;DHT22;7680;48.800;9.680;2023-06-22T06:44:21;29.30;99.30
15160;DHT22;7680;48.800;9.680;2023-06-22T06:46:55;29.00;98.60
15160;DHT22;7680;48.800;9.680;2023-06-22T06:49:28;29.00;99.00
15160;DHT22;7680;48.800;9.680;2023-06-22T06:52:01;29.00;98.80
15160;DHT22;7680;48.800;9.680;2023-06-22T06:54:35;29.00;98.10
15160;DHT22;7680;48.800;9.680;2023-06-22T06:57:08;28.90;98.50
15160;DHT22;7680;48.800;9.680;2023-06-22T06:59:45;29.30;97.50
15160;DHT22;7680;48.800;9.680;2023-06-22T07:02:18;29.50;96.70
15160;DHT22;7680;48.800;9.680;2023-06-22T07:04:52;29.90;96.50
15160;DHT22;7680;48.800;9.680;2023-06-22T07:07:26;30.10;95.80
15160;DHT22;7680;48.800;9.680;2023-06-22T07:10:01;30.50;95.20
15160;DHT22;7680;48.800;9.680;2023-06-22T07:12:37;30.50;94.80
15160;DHT22;7680;48.800;9.680;2023-06-22T07:15:10;30.70;94.90
15160;DHT22;7680;48.800;9.680;2023-06-22T07:17:44;30.50;95.40
15160;DHT22;7680;48.800;9.680;2023-06-22T07:20:17;30.40;94.20
15160;DHT22;7680;48.800;9.680;2023-06-22T07:22:51;30.40;94.40
15160;DHT22;7680;48.800;9.680;2023-06-22T07:25:25;30.50;93.90
15160;DHT22;7680;48.800;9.680;2023-06-22T07:28:00;30.70;93.60
15160;DHT22;7680;48.800;9.680;2023-06-22T07:30:35;31.00;93.40
15160;DHT22;7680;48.800;9.680;2023-06-22T07:33:08;31.20;93.00
15160;DHT22;7680;48.800;9.680;2023-06-22T07:35:41;31.30;93.50
15160;DHT22;7680;48.800;9.680;2023-06-22T07:38:14;31.50;92.60
15160;DHT22;7680;48.800;9.680;2023-06-22T07:40:49;31.70;92.00
15160;DHT22;7680;48.800;9.680;2023-06-22T07:43:25;31.60;91.90
15160;DHT22;7680;48.800;9.680;2023-06-22T07:45:58;31.90;90.80
15160;DHT22;7680;48.800;9.680;2023-06-22T07:48:31;31.60;88.70
15160;DHT22;7680;48.800;9.680;2023-06-22T07:51:04;31.70;90.50
15160;DHT22;7680;48.800;9.680;2023-06-22T07:53:39;32.10;89.90
15160;DHT22;7680;48.800;9.680;2023-06-22T07:56:14;31.90;89.80
15160;DHT22;7680;48.800;9.680;2023-06-22T07:58:50;31.30;90.10
15160;DHT22;7680;48.800;9.680;2023-06-22T08:01:24;31.70;88.20
15160;DHT22;7680;48.800;9.680;2023-06-22T08:03:57;31.90;88.40
15160;DHT22;7680;48.800;9.680;2023-06-22T08:06:31;32.20;86.60
15160;DHT22;7680;48.800;9.680;2023-06-22T08:09:04;32.10;85.70
15160;DHT22;7680;48.800;9.680;2023-06-22T08:11:38;32.70;85.30
15160;DHT22;7680;48.800;9.680;2023-06-22T08:14:11;32.20;84.00
15160;DHT22;7680;48.800;9.680;2023-06-22T08:16:44;32.10;85.30
15160;DHT22;7680;48.800;9.680;2023-06-22T08:19:18;32.40;83.50
15160;DHT22;7680;48.800;9.680;2023-06-22T08:21:51;32.20;84.20
15160;DHT22;7680;48.800;9.680;2023-06-22T08:24:24;32.20;85.10
15160;DHT22;7680;48.800;9.680;2023-06-22T08:26:58;32.30;82.60
15160;DHT22;7680;48.800;9.680;2023-06-22T08:29:31;32.50;83.40
15160;DHT22;7680;48.800;9.680;2023-06-22T08:32:05;32.50;81.60
15160;DHT22;7680;48.800;9.680;2023-06-22T08:34:39;32.60;81.40
15160;DHT22;7680;48.800;9.680;2023-06-22T08:37:13;32.50;79.70
15160;DHT22;7680;48.800;9.680;2023-06-22T08:39:47;31.80;83.40
15160;DHT22;7680;48.800;9.680;2023-06-22T08:42:21;31.90;82.70
15160;DHT22;7680;48.800;9.680;2023-06-22T08:44:55;32.10;82.90
15160;DHT22;7680;48.800;9.680;2023-06-22T08:47:28;32.20;80.10
15160;DHT22;7680;48.800;9.680;2023-06-22T08:50:02;32.20;81.60
15160;DHT22;7680;48.800;9.680;2023-06-22T08:52:36;32.50;80.60
15160;DHT22;7680;48.800;9.680;2023-06-22T08:55:10;32.10;82.90
15160;DHT22;7680;48.800;9.680;2023-06-22T08:57:44;32.10;82.60
15160;DHT22;7680;48.800;9.680;2023-06-22T09:00:18;32.00;82.30
15160;DHT22;7680;48.800;9.680;2023-06-22T09:02:52;32.20;82.50
15160;DHT22;7680;48.800;9.680;2023-06-22T09:05:27;32.40;85.70
15160;DHT22;7680;48.800;9.680;2023-06-22T09:08:01;32.70;82.60
15160;DHT22;7680;48.800;9.680;2023-06-22T09:10:34;33.00;80.80
15160;DHT22;7680;48.800;9.680;2023-06-22T09:13:09;33.00;80.20
15160;DHT22;7680;48.800;9.680;2023-06-22T09:15:42;33.20;80.00
15160;DHT22;7680;48.800;9.680;2023-06-22T09:18:15;33.30;80.80
15160;DHT22;7680;48.800;9.680;2023-06-22T09:20:48;33.60;80.90
15160;DHT22;7680;48.800;9.680;2023-06-22T09:23:22;33.80;78.40
15160;DHT22;7680;48.800;9.680;2023-06-22T09:25:55;33.40;79.60
15160;DHT22;7680;48.800;9.680;2023-06-22T09:28:29;33.20;79.10
15160;DHT22;7680;48.800;9.680;2023-06-22T09:31:02;33.30;79.50
15160;DHT22;7680;48.800;9.680;2023-06-22T09:33:36;33.40;80.90
15160;DHT22;7680;48.800;9.680;2023-06-22T09:36:09;33.50;79.00
15160;DHT22;7680;48.800;9.680;2023-06-22T09:38:42;33.40;78.50
15160;DHT22;7680;48.800;9.680;2023-06-22T09:41:15;33.40;80.80
15160;DHT22;7680;48.800;9.680;2023-06-22T09:43:50;33.30;83.00
15160;DHT22;7680;48.800;9.680;2023-06-22T09:46:27;33.40;78.30
15160;DHT22;7680;48.800;9.680;2023-06-22T09:49:00;33.50;78.20
15160;DHT22;7680;48.800;9.680;2023-06-22T09:51:33;33.60;79.60
15160;DHT22;7680;48.800;9.680;2023-06-22T09:54:06;33.70;79.90
15160;DHT22;7680;48.800;9.680;2023-06-22T09:56:39;33.90;79.20
15160;DHT22;7680;48.800;9.680;2023-06-22T09:59:14;33.90;78.50
15160;DHT22;7680;48.800;9.680;2023-06-22T10:01:49;34.10;78.70
15160;DHT22;7680;48.800;9.680;2023-06-22T10:04:22;34.10;78.20
15160;DHT22;7680;48.800;9.680;2023-06-22T10:06:56;34.20;78.90
15160;DHT22;7680;48.800;9.680;2023-06-22T10:09:29;34.10;78.00
15160;DHT22;7680;48.800;9.680;2023-06-22T10:12:03;34.10;77.80
15160;DHT22;7680;48.800;9.680;2023-06-22T10:14:37;34.40;77.70
15160;DHT22;7680;48.800;9.680;2023-06-22T10:17:11;34.50;76.90
15160;DHT22;7680;48.800;9.680;2023-06-22T10:19:44;34.40;77.70
15160;DHT22;7680;48.800;9.680;2023-06-22T10:22:17;34.10;78.40
15160;DHT22;7680;48.800;9.680;2023-06-22T10:24:50;34.10;78.80
15160;DHT22;7680;48.800;9.680;2023-06-22T10:27:23;34.00;77.90
15160;DHT22;7680;48.800;9.680;2023-06-22T10:29:58;34.20;77.80
15160;DHT22;7680;48.800;9.680;2023-06-22T10:32:31;33.70;78.00
15160;DHT22;7680;48.800;9.680;2023-06-22T10:35:05;33.50;78.30
15160;DHT22;7680;48.800;9.680;2023-06-22T10:37:39;33.50;79.40
15160;DHT22;7680;48.800;9.680;2023-06-22T10:40:15;33.40;78.70
15160;DHT22;7680;48.800;9.680;2023-06-22T10:42:50;33.20;78.90
15160;DHT22;7680;48.800;9.680;2023-06-22T10:45:25;33.40;78.00
15160;DHT22;7680;48.800;9.680;2023-06-22T10:47:59;33.40;80.30
15160;DHT22;7680;48.800;9.680;2023-06-22T10:50:32;33.60;78.90
15160;DHT22;7680;48.800;9.680;2023-06-22T10:53:06;33.60;78.40
15160;DHT22;7680;48.800;9.680;2023-06-22T10:55:39;33.80;78.30
15160;DHT22;7680;48.800;9.680;2023-06-22T10:58:18;33.70;77.50
15160;DHT22;7680;48.800;9.680;2023-06-22T11:00:53;34.00;77.20
15160;DHT22;7680;48.800;9.680;2023-06-22T11:03:26;33.90;78.10
15160;DHT22;7680;48.800;9.680;2023-06-22T11:05:59;33.70;79.50
15160;DHT22;7680;48.800;9.680;2023-06-22T11:08:33;33.70;79.30
15160;DHT22;7680;48.800;9.680;2023-06-22T11:11:06;33.70;79.80
15160;DHT22;7680;48.800;9.680;2023-06-22T11:13:39;33.80;77.70
15160;DHT22;7680;48.800;9.680;2023-06-22T11:16:13;33.70;78.10
15160;DHT22;7680;48.800;9.680;2023-06-22T11:18:47;33.60;77.50
15160;DHT22;7680;48.800;9.680;2023-06-22T11:21:20;33.40;79.00
15160;DHT22;7680;48.800;9.680;2023-06-22T11:23:54;33.60;79.70
15160;DHT22;7680;48.800;9.680;2023-06-22T11:26:27;33.60;78.90
15160;DHT22;7680;48.800;9.680;2023-06-22T11:29:00;33.90;78.10
15160;DHT22;7680;48.800;9.680;2023-06-22T11:31:38;33.70;78.60
15160;DHT22;7680;48.800;9.680;2023-06-22T11:34:11;33.60;77.90
15160;DHT22;7680;48.800;9.680;2023-06-22T11:36:44;33.80;77.50
15160;DHT22;7680;48.800;9.680;2023-06-22T11:39:19;33.80;76.80
15160;DHT22;7680;48.800;9.680;2023-06-22T11:42:09;33.90;76.40
15160;DHT22;7680;48.800;9.680;2023-06-22T11:44:43;34.40;76.10
15160;DHT22;7680;48.800;9.680;2023-06-22T11:47:18;34.40;76.70
15160;DHT22;7680;48.800;9.680;2023-06-22T11:49:51;34.00;77.10
15160;DHT22;7680;48.800;9.680;2023-06-22T11:52:24;33.60;78.90
15160;DHT22;7680;48.800;9.680;2023-06-22T11:54:59;33.60;78.60
15160;DHT22;7680;48.800;9.680;2023-06-22T11:57:35;33.60;79.20
15160;DHT22;7680;48.800;9.680;2023-06-22T12:00:10;33.50;78.30
15160;DHT22;7680;48.800;9.680;2023-06-22T12:02:49;33.30;78.40
15160;DHT22;7680;48.800;9.680;2023-06-22T12:05:23;33.50;77.50
15160;DHT22;7680;48.800;9.680;2023-06-22T12:07:56;33.30;78.90
15160;DHT22;7680;48.800;9.680;2023-06-22T12:10:29;33.20;79.90
15160;DHT22;7680;48.800;9.680;2023-06-22T12:13:03;33.10;79.90
15160;DHT22;7680;48.800;9.680;2023-06-22T12:15:36;32.90;81.50
15160;DHT22;7680;48.800;9.680;2023-06-22T12:18:11;32.90;82.90
15160;DHT22;7680;48.800;9.680;2023-06-22T12:20:46;33.00;82.40
15160;DHT22;7680;48.800;9.680;2023-06-22T12:23:19;32.90;83.20
15160;DHT22;7680;48.800;9.680;2023-06-22T12:25:52;32.80;83.30
15160;DHT22;7680;48.800;9.680;2023-06-22T12:28:25;32.80;84.10
15160;DHT22;7680;48.800;9.680;2023-06-22T12:30:59;32.90;83.30
15160;DHT22;7680;48.800;9.680;2023-06-22T12:33:33;32.90;82.90
15160;DHT22;7680;48.800;9.680;2023-06-22T12:36:06;33.00;81.80
15160;DHT22;7680;48.800;9.680;2023-06-22T12:38:40;33.10;81.40
15160;DHT22;7680;48.800;9.680;2023-06-22T12:41:13;33.30;82.20
15160;DHT22;7680;48.800;9.680;2023-06-22T12:43:46;33.40;82.50
15160;DHT22;7680;48.800;9.680;2023-06-22T12:46:19;33.50;80.50
15160;DHT22;7680;48.800;9.680;2023-06-22T12:48:54;33.50;79.70
15160;DHT22;7680;48.800;9.680;2023-06-22T12:51:27;33.40;79.90
15160;DHT22;7680;48.800;9.680;2023-06-22T12:54:00;33.20;79.80
15160;DHT22;7680;48.800;9.680;2023-06-22T12:56:33;33.10;80.70
15160;DHT22;7680;48.800;9.680;2023-06-22T12:59:06;33.00;80.20
15160;DHT22;7680;48.800;9.680;2023-06-22T13:01:40;33.00;81.10
15160;DHT22;7680;48.800;9.680;2023-06-22T13:04:14;32.80;81.50
15160;DHT22;7680;48.800;9.680;2023-06-22T13:06:47;32.70;82.80
15160;DHT22;7680;48.800;9.680;2023-06-22T13:09:22;32.60;82.30
15160;DHT22;7680;48.800;9.680;2023-06-22T13:11:56;32.60;83.00
15160;DHT22;7680;48.800;9.680;2023-06-22T13:14:29;32.60;83.00
15160;DHT22;7680;48.800;9.680;2023-06-22T13:17:02;32.50;83.00
15160;DHT22;7680;48.800;9.680;2023-06-22T13:19:37;32.50;82.10
15160;DHT22;7680;48.800;9.680;2023-06-22T13:22:28;32.50;82.40
15160;DHT22;7680;48.800;9.680;2023-06-22T13:25:02;32.40;84.50
15160;DHT22;7680;48.800;9.680;2023-06-22T13:27:36;32.50;82.60
15160;DHT22;7680;48.800;9.680;2023-06-22T13:30:09;32.50;82.80
15160;DHT22;7680;48.800;9.680;2023-06-22T13:32:45;32.60;80.70
15160;DHT22;7680;48.800;9.680;2023-06-22T13:35:20;32.70;83.90
15160;DHT22;7680;48.800;9.680;2023-06-22T13:37:53;32.70;81.70
15160;DHT22;7680;48.800;9.680;2023-06-22T13:40:26;32.70;82.00
15160;DHT22;7680;48.800;9.680;2023-06-22T13:43:00;32.90;82.20
15160;DHT22;7680;48.800;9.680;2023-06-22T13:45:33;32.90;83.10
15160;DHT22;7680;48.800;9.680;2023-06-22T13:48:06;33.00;80.40
15160;DHT22;7680;48.800;9.680;2023-06-22T13:50:41;33.00;78.20
15160;DHT22;7680;48.800;9.680;2023-06-22T13:53:14;33.10;79.50
15160;DHT22;7680;48.800;9.680;2023-06-22T13:55:47;33.20;77.80
15160;DHT22;7680;48.800;9.680;2023-06-22T13:58:20;33.30;76.80
15160;DHT22;7680;48.800;9.680;2023-06-22T14:00:53;33.20;75.20
15160;DHT22;7680;48.800;9.680;2023-06-22T14:03:27;33.30;77.30
15160;DHT22;7680;48.800;9.680;2023-06-22T14:06:02;33.30;75.90
15160;DHT22;7680;48.800;9.680;2023-06-22T14:08:36;33.20;76.70
15160;DHT22;7680;48.800;9.680;2023-06-22T14:11:13;33.30;76.30
15160;DHT22;7680;48.800;9.680;2023-06-22T14:13:46;33.20;79.90
15160;DHT22;7680;48.800;9.680;2023-06-22T14:16:19;33.10;76.30
15160;DHT22;7680;48.800;9.680;2023-06-22T14:18:52;33.10;78.20
15160;DHT22;7680;48.800;9.680;2023-06-22T14:21:30;33.10;78.50
15160;DHT22;7680;48.800;9.680;2023-06-22T14:24:03;33.10;78.10
15160;DHT22;7680;48.800;9.680;2023-06-22T14:26:37;33.10;77.40
15160;DHT22;7680;48.800;9.680;2023-06-22T14:29:10;33.10;77.40
15160;DHT22;7680;48.800;9.680;2023-06-22T14:31:45;33.10;75.80
15160;DHT22;7680;48.800;9.680;2023-06-22T14:34:18;33.20;74.80
15160;DHT22;7680;48.800;9.680;2023-06-22T14:36:53;33.30;76.10
15160;DHT22;7680;48.800;9.680;2023-06-22T14:39:26;33.40;76.40
15160;DHT22;7680;48.800;9.680;2023-06-22T14:41:59;33.40;76.20
15160;DHT22;7680;48.800;9.680;2023-06-22T14:44:33;33.30;74.50
15160;DHT22;7680;48.800;9.680;2023-06-22T14:47:07;33.20;73.40
15160;DHT22;7680;48.800;9.680;2023-06-22T14:49:40;33.20;73.00
15160;DHT22;7680;48.800;9.680;2023-06-22T14:52:15;33.10;73.20
15160;DHT22;7680;48.800;9.680;2023-06-22T14:54:48;33.20;73.10
15160;DHT22;7680;48.800;9.680;2023-06-22T14:57:24;33.30;71.60
15160;DHT22;7680;48.800;9.680;2023-06-22T14:59:57;33.40;72.00
15160;DHT22;7680;48.800;9.680;2023-06-22T15:02:30;33.50;71.30
15160;DHT22;7680;48.800;9.680;2023-06-22T15:05:04;33.50;72.40
15160;DHT22;7680;48.800;9.680;2023-06-22T15:07:40;33.50;73.20
15160;DHT22;7680;48.800;9.680;2023-06-22T15:10:14;33.40;74.00
15160;DHT22;7680;48.800;9.680;2023-06-22T15:12:47;33.30;73.20
15160;DHT22;7680;48.800;9.680;2023-06-22T15:15:20;33.30;73.70
15160;DHT22;7680;48.800;9.680;2023-06-22T15:17:53;33.20;72.90
15160;DHT22;7680;48.800;9.680;2023-06-22T15:20:27;33.00;75.00
15160;DHT22;7680;48.800;9.680;2023-06-22T15:23:02;32.80;73.20
15160;DHT22;7680;48.800;9.680;2023-06-22T15:25:35;32.80;73.50
15160;DHT22;7680;48.800;9.680;2023-06-22T15:28:10;32.70;73.80
15160;DHT22;7680;48.800;9.680;2023-06-22T15:30:43;32.80;72.30
15160;DHT22;7680;48.800;9.680;2023-06-22T15:33:20;32.80;72.30
15160;DHT22;7680;48.800;9.680;2023-06-22T15:35:53;32.80;73.40
15160;DHT22;7680;48.800;9.680;2023-06-22T15:38:29;33.00;72.00
15160;DHT22;7680;48.800;9.680;2023-06-22T15:41:03;33.20;71.20
15160;DHT22;7680;48.800;9.680;2023-06-22T15:43:36;33.20;71.40
15160;DHT22;7680;48.800;9.680;2023-06-22T15:46:09;33.20;72.20
15160;DHT22;7680;48.800;9.680;2023-06-22T15:48:42;33.20;72.50
15160;DHT22;7680;48.800;9.680;2023-06-22T15:51:18;33.20;72.70
15160;DHT22;7680;48.800;9.680;2023-06-22T15:53:52;33.10;73.20
15160;DHT22;7680;48.800;9.680;2023-06-22T15:56:29;33.20;73.30
15160;DHT22;7680;48.800;9.680;2023-06-22T15:59:02;33.30;72.20
15160;DHT22;7680;48.800;9.680;2023-06-22T16:01:36;33.10;74.40
15160;DHT22;7680;48.800;9.680;2023-06-22T16:04:09;32.90;73.80
15160;DHT22;7680;48.800;9.680;2023-06-22T16:06:42;32.90;74.30
15160;DHT22;7680;48.800;9.680;2023-06-22T16:09:17;32.90;74.00
15160;DHT22;7680;48.800;9.680;2023-06-22T16:11:50;32.90;72.70
15160;DHT22;7680;48.800;9.680;2023-06-22T16:14:24;32.80;71.10
15160;DHT22;7680;48.800;9.680;2023-06-22T16:16:57;32.60;71.50
15160;DHT22;7680;48.800;9.680;2023-06-22T16:19:33;32.40;71.90
15160;DHT22;7680;48.800;9.680;2023-06-22T16:22:06;32.30;72.40
15160;DHT22;7680;48.800;9.680;2023-06-22T16:24:41;32.10;70.30
15160;DHT22;7680;48.800;9.680;2023-06-22T16:27:15;32.00;69.50
15160;DHT22;7680;48.800;9.680;2023-06-22T16:29:48;32.00;69.80